sensor_id;sensor_type;location;lat;lon;timestamp;temperature;humidity
22430;DHT22;11382;48.086;11.632;2023-01-16T00:01:58;1.00;99.90
22430;DHT22;11382;48.086;11.632;2023-01-16T00:04:27;1.00;99.90
22430;DHT22;11382;48.086;11.632;2023-01-16T00:06:55;1.00;99.90
22430;DHT22;11382;48.086;11.632;2023-01-16T00:09:23;1.10;99.90
22430;DHT22;11382;48.086;11.632;2023-01-16T00:11:51;1.20;99.90
22430;DHT22;11382;48.086;11.632;2023-01-16T00:14:19;1.10;99.90
22430;DHT22;11382;48.086;11.632;2023-01-16T00:16:48;1.20;99.90
22430;DHT22;11382;48.086;11.632;2023-01-16T00:19:17;1.20;99.90
22430;DHT22;11382;48.086;11.632;2023-01-16T00:21:45;1.20;99.90
22430;DHT22;11382;48.086;11.632;2023-01-16T00:24:15;1.10;99.90
22430;DHT22;11382;48.086;11.632;2023-01-16T00:26:43;1.10;99.90
22430;DHT22;11382;48.086;11.632;2023-01-16T00:29:11;1.00;99.90
22430;DHT22;11382;48.086;11.632;2023-01-16T00:31:38;0.90;99.90
22430;DHT22;11382;48.086;11.632;2023-01-16T00:34:08;1.00;99.90
22430;DHT22;11382;48.086;11.632;2023-01-16T00:36:36;1.10;99.90
22430;DHT22;11382;48.086;11.632;2023-01-16T00:39:05;1.10;99.90
22430;DHT22;11382;48.086;11.632;2023-01-16T00:41:33;1.10;99.90
22430;DHT22;11382;48.086;11.632;2023-01-16T00:44:01;1.00;99.90
22430;DHT22;11382;48.086;11.632;2023-01-16T00:46:29;0.90;99.90
22430;DHT22;11382;48.086;11.632;2023-01-16T00:48:59;1.00;99.90
22430;DHT22;11382;48.086;11.632;2023-01-16T00:51:29;1.00;99.90
22430;DHT22;11382;48.086;11.632;2023-01-16T00:53:57;1.00;99.90
22430;DHT22;11382;48.086;11.632;2023-01-16T00:56:25;1.00;99.90
22430;DHT22;11382;48.086;11.632;2023-01-16T00:58:53;1.10;99.90
22430;DHT22;11382;48.086;11.632;2023-01-16T01:01:21;1.20;99.90
22430;DHT22;11382;48.086;11.632;2023-01-16T01:03:49;1.10;99.90
22430;DHT22;11382;48.086;11.632;2023-01-16T01:06:17;1.10;99.90
22430;DHT22;11382;48.086;11.632;2023-01-16T01:08:46;1.20;99.90
22430;DHT22;11382;48.086;11.632;2023-01-16T01:11:15;1.20;99.90
22430;DHT22;11382;48.086;11.632;2023-01-16T01:13:43;1.30;99.90
22430;DHT22;11382;48.086;11.632;2023-01-16T01:16:12;1.30;99.90
22430;DHT22;11382;48.086;11.632;2023-01-16T01:18:40;1.30;99.90
22430;DHT22;11382;48.086;11.632;2023-01-16T01:21:09;1.30;99.90
22430;DHT22;11382;48.086;11.632;2023-01-16T01:23:38;1.30;99.90
22430;DHT22;11382;48.086;11.632;2023-01-16T01:26:11;1.30;99.90
22430;DHT22;11382;48.086;11.632;2023-01-16T01:28:39;1.40;99.90
22430;DHT22;11382;48.086;11.632;2023-01-16T01:31:09;1.20;99.90
22430;DHT22;11382;48.086;11.632;2023-01-16T01:33:38;1.10;99.90
22430;DHT22;11382;48.086;11.632;2023-01-16T01:36:08;1.10;99.90
22430;DHT22;11382;48.086;11.632;2023-01-16T01:38:36;1.00;99.90
22430;DHT22;11382;48.086;11.632;2023-01-16T01:41:04;1.10;99.90
22430;DHT22;11382;48.086;11.632;2023-01-16T01:43:42;1.00;99.90
22430;DHT22;11382;48.086;11.632;2023-01-16T01:46:18;0.90;99.90
22430;DHT22;11382;48.086;11.632;2023-01-16T01:48:48;0.90;99.90
22430;DHT22;11382;48.086;11.632;2023-01-16T01:51:21;0.90;99.90
22430;DHT22;11382;48.086;11.632;2023-01-16T01:53:55;0.90;99.90
22430;DHT22;11382;48.086;11.632;2023-01-16T01:56:26;1.00;99.90
22430;DHT22;11382;48.086;11.632;2023-01-16T01:58:58;0.90;99.90
22430;DHT22;11382;48.086;11.632;2023-01-16T02:01:27;0.90;99.90
22430;DHT22;11382;48.086;11.632;2023-01-16T02:04:00;0.90;99.90
22430;DHT22;11382;48.086;11.632;2023-01-16T02:06:32;0.90;99.90
22430;DHT22;11382;48.086;11.632;2023-01-16T02:09:04;0.90;99.90
22430;DHT22;11382;48.086;11.632;2023-01-16T02:11:37;0.80;99.90
22430;DHT22;11382;48.086;11.632;2023-01-16T02:14:10;0.80;99.90
22430;DHT22;11382;48.086;11.632;2023-01-16T02:16:39;0.80;99.90
22430;DHT22;11382;48.086;11.632;2023-01-16T02:19:33;0.90;99.90
22430;DHT22;11382;48.086;11.632;2023-01-16T02:25:46;1.10;99.90
22430;DHT22;11382;48.086;11.632;2023-01-16T02:28:39;1.00;99.90
22430;DHT22;11382;48.086;11.632;2023-01-16T02:31:27;1.00;99.90
22430;DHT22;11382;48.086;11.632;2023-01-16T02:34:11;1.00;99.90
22430;DHT22;11382;48.086;11.632;2023-01-16T02:36:50;1.00;99.90
22430;DHT22;11382;48.086;11.632;2023-01-16T02:39:26;1.00;99.90
22430;DHT22;11382;48.086;11.632;2023-01-16T02:42:20;1.00;99.90
22430;DHT22;11382;48.086;11.632;2023-01-16T02:44:58;1.00;99.90
22430;DHT22;11382;48.086;11.632;2023-01-16T02:47:33;1.00;99.90
22430;DHT22;11382;48.086;11.632;2023-01-16T02:50:13;1.00;99.90
22430;DHT22;11382;48.086;11.632;2023-01-16T02:52:51;1.00;99.90
22430;DHT22;11382;48.086;11.632;2023-01-16T02:55:26;0.90;99.90
22430;DHT22;11382;48.086;11.632;2023-01-16T02:57:59;0.80;99.90
22430;DHT22;11382;48.086;11.632;2023-01-16T03:00:28;0.80;99.90
22430;DHT22;11382;48.086;11.632;2023-01-16T03:02:58;1.00;99.90
22430;DHT22;11382;48.086;11.632;2023-01-16T03:05:27;1.00;99.90
22430;DHT22;11382;48.086;11.632;2023-01-16T03:08:19;1.10;99.90
22430;DHT22;11382;48.086;11.632;2023-01-16T03:11:14;1.00;99.90
22430;DHT22;11382;48.086;11.632;2023-01-16T03:14:05;1.00;99.90
22430;DHT22;11382;48.086;11.632;2023-01-16T03:16:41;0.90;99.90
22430;DHT22;11382;48.086;11.632;2023-01-16T03:19:26;0.90;99.90
22430;DHT22;11382;48.086;11.632;2023-01-16T03:22:05;0.90;99.90
22430;DHT22;11382;48.086;11.632;2023-01-16T03:24:45;0.90;99.90
22430;DHT22;11382;48.086;11.632;2023-01-16T03:27:20;0.90;99.90
22430;DHT22;11382;48.086;11.632;2023-01-16T03:29:54;0.80;99.90
22430;DHT22;11382;48.086;11.632;2023-01-16T03:32:29;0.70;99.90
22430;DHT22;11382;48.086;11.632;2023-01-16T03:35:04;0.70;99.90
22430;DHT22;11382;48.086;11.632;2023-01-16T03:37:35;0.70;99.90
22430;DHT22;11382;48.086;11.632;2023-01-16T03:40:10;0.60;99.90
22430;DHT22;11382;48.086;11.632;2023-01-16T03:42:41;0.60;99.90
22430;DHT22;11382;48.086;11.632;2023-01-16T03:45:15;0.50;99.90
22430;DHT22;11382;48.086;11.632;2023-01-16T03:47:56;0.50;99.90
22430;DHT22;11382;48.086;11.632;2023-01-16T03:50:31;0.50;99.90
22430;DHT22;11382;48.086;11.632;2023-01-16T03:53:07;0.40;99.90
22430;DHT22;11382;48.086;11.632;2023-01-16T03:55:41;0.40;99.90
22430;DHT22;11382;48.086;11.632;2023-01-16T03:58:14;0.40;99.90
22430;DHT22;11382;48.086;11.632;2023-01-16T04:00:49;0.40;99.90
22430;DHT22;11382;48.086;11.632;2023-01-16T04:03:26;0.40;99.90
22430;DHT22;11382;48.086;11.632;2023-01-16T04:06:01;0.40;99.90
22430;DHT22;11382;48.086;11.632;2023-01-16T04:08:35;0.40;99.90
22430;DHT22;11382;48.086;11.632;2023-01-16T04:11:05;0.30;99.90
22430;DHT22;11382;48.086;11.632;2023-01-16T04:13:36;0.30;99.90
22430;DHT22;11382;48.086;11.632;2023-01-16T04:16:07;0.30;99.90
22430;DHT22;11382;48.086;11.632;2023-01-16T04:18:38;0.40;99.90
22430;DHT22;11382;48.086;11.632;2023-01-16T04:21:07;0.30;99.90
22430;DHT22;11382;48.086;11.632;2023-01-16T04:23:36;0.40;99.90
22430;DHT22;11382;48.086;11.632;2023-01-16T04:26:04;0.30;99.90
22430;DHT22;11382;48.086;11.632;2023-01-16T04:28:33;0.30;99.90
22430;DHT22;11382;48.086;11.632;2023-01-16T04:31:01;0.40;99.90
22430;DHT22;11382;48.086;11.632;2023-01-16T04:33:29;0.40;99.90
22430;DHT22;11382;48.086;11.632;2023-01-16T04:35:58;0.40;99.90
22430;DHT22;11382;48.086;11.632;2023-01-16T04:38:27;0.30;99.90
22430;DHT22;11382;48.086;11.632;2023-01-16T04:40:55;0.20;99.90
22430;DHT22;11382;48.086;11.632;2023-01-16T04:43:23;0.20;99.90
22430;DHT22;11382;48.086;11.632;2023-01-16T04:45:51;0.10;99.90
22430;DHT22;11382;48.086;11.632;2023-01-16T04:48:19;0.10;99.90
22430;DHT22;11382;48.086;11.632;2023-01-16T04:50:47;0.10;99.90
22430;DHT22;11382;48.086;11.632;2023-01-16T04:53:16;0.00;99.90
22430;DHT22;11382;48.086;11.632;2023-01-16T04:55:45;0.00;99.90
22430;DHT22;11382;48.086;11.632;2023-01-16T04:58:13;0.00;99.90
22430;DHT22;11382;48.086;11.632;2023-01-16T05:00:41;0.00;99.90
22430;DHT22;11382;48.086;11.632;2023-01-16T05:03:09;-0.10;99.90
22430;DHT22;11382;48.086;11.632;2023-01-16T05:05:38;-0.10;99.90
22430;DHT22;11382;48.086;11.632;2023-01-16T05:08:06;-0.10;99.90
22430;DHT22;11382;48.086;11.632;2023-01-16T05:10:45;-0.10;99.90
22430;DHT22;11382;48.086;11.632;2023-01-16T05:13:13;0.00;99.90
22430;DHT22;11382;48.086;11.632;2023-01-16T05:15:42;0.00;99.90
22430;DHT22;11382;48.086;11.632;2023-01-16T05:18:11;0.00;99.90
22430;DHT22;11382;48.086;11.632;2023-01-16T05:20:39;-0.10;99.90
22430;DHT22;11382;48.086;11.632;2023-01-16T05:23:07;0.00;99.90
22430;DHT22;11382;48.086;11.632;2023-01-16T05:25:37;-0.10;99.90
22430;DHT22;11382;48.086;11.632;2023-01-16T05:28:07;-0.10;99.90
22430;DHT22;11382;48.086;11.632;2023-01-16T05:30:35;-0.10;99.90
22430;DHT22;11382;48.086;11.632;2023-01-16T05:33:04;-0.10;99.90
22430;DHT22;11382;48.086;11.632;2023-01-16T05:35:33;-0.10;99.90
22430;DHT22;11382;48.086;11.632;2023-01-16T05:38:01;-0.10;99.90
22430;DHT22;11382;48.086;11.632;2023-01-16T05:40:29;-0.20;99.90
22430;DHT22;11382;48.086;11.632;2023-01-16T05:42:57;-0.20;99.90
22430;DHT22;11382;48.086;11.632;2023-01-16T05:45:26;-0.20;99.90
22430;DHT22;11382;48.086;11.632;2023-01-16T05:47:56;-0.20;99.90
22430;DHT22;11382;48.086;11.632;2023-01-16T05:50:24;-0.20;99.90
22430;DHT22;11382;48.086;11.632;2023-01-16T05:52:53;-0.20;99.90
22430;DHT22;11382;48.086;11.632;2023-01-16T05:55:21;-0.30;99.90
22430;DHT22;11382;48.086;11.632;2023-01-16T05:57:49;-0.20;99.90
22430;DHT22;11382;48.086;11.632;2023-01-16T06:00:19;-0.20;99.90
22430;DHT22;11382;48.086;11.632;2023-01-16T06:02:50;-0.20;99.90
22430;DHT22;11382;48.086;11.632;2023-01-16T06:05:18;-0.20;99.90
22430;DHT22;11382;48.086;11.632;2023-01-16T06:07:46;-0.10;99.90
22430;DHT22;11382;48.086;11.632;2023-01-16T06:10:15;-0.20;99.90
22430;DHT22;11382;48.086;11.632;2023-01-16T06:12:43;-0.10;99.90
22430;DHT22;11382;48.086;11.632;2023-01-16T06:15:11;-0.10;99.90
22430;DHT22;11382;48.086;11.632;2023-01-16T06:17:41;-0.10;99.90
22430;DHT22;11382;48.086;11.632;2023-01-16T06:28:00;-0.10;99.90
22430;DHT22;11382;48.086;11.632;2023-01-16T06:31:31;-0.10;99.90
22430;DHT22;11382;48.086;11.632;2023-01-16T06:38:07;-0.10;99.90
22430;DHT22;11382;48.086;11.632;2023-01-16T06:40:49;-0.20;99.90
22430;DHT22;11382;48.086;11.632;2023-01-16T06:43:24;-0.10;99.90
22430;DHT22;11382;48.086;11.632;2023-01-16T06:45:55;-0.10;99.90
22430;DHT22;11382;48.086;11.632;2023-01-16T06:48:45;-0.10;99.90
22430;DHT22;11382;48.086;11.632;2023-01-16T06:51:31;-0.10;99.90
22430;DHT22;11382;48.086;11.632;2023-01-16T06:54:14;-0.10;99.90
22430;DHT22;11382;48.086;11.632;2023-01-16T06:56:42;0.00;99.90
22430;DHT22;11382;48.086;11.632;2023-01-16T06:59:11;-0.10;99.90
22430;DHT22;11382;48.086;11.632;2023-01-16T07:01:39;-0.20;99.90
22430;DHT22;11382;48.086;11.632;2023-01-16T07:04:07;-0.20;99.90
22430;DHT22;11382;48.086;11.632;2023-01-16T07:06:39;-0.20;99.90
22430;DHT22;11382;48.086;11.632;2023-01-16T07:09:08;-0.30;99.90
22430;DHT22;11382;48.086;11.632;2023-01-16T07:11:36;-0.30;99.90
22430;DHT22;11382;48.086;11.632;2023-01-16T07:14:04;-0.20;99.90
22430;DHT22;11382;48.086;11.632;2023-01-16T07:16:51;-0.10;99.90
22430;DHT22;11382;48.086;11.632;2023-01-16T07:19:37;-0.10;99.90
22430;DHT22;11382;48.086;11.632;2023-01-16T07:22:23;-0.10;99.90
22430;DHT22;11382;48.086;11.632;2023-01-16T07:25:09;-0.20;99.90
22430;DHT22;11382;48.086;11.632;2023-01-16T07:27:38;-0.30;99.90
22430;DHT22;11382;48.086;11.632;2023-01-16T07:30:08;-0.20;99.90
22430;DHT22;11382;48.086;11.632;2023-01-16T07:32:38;-0.30;99.90
22430;DHT22;11382;48.086;11.632;2023-01-16T07:35:07;-0.30;99.90
22430;DHT22;11382;48.086;11.632;2023-01-16T07:37:35;-0.30;99.90
22430;DHT22;11382;48.086;11.632;2023-01-16T07:40:03;-0.30;99.90
22430;DHT22;11382;48.086;11.632;2023-01-16T07:42:31;-0.20;99.90
22430;DHT22;11382;48.086;11.632;2023-01-16T07:44:59;-0.20;99.90
22430;DHT22;11382;48.086;11.632;2023-01-16T07:47:27;-0.10;99.90
22430;DHT22;11382;48.086;11.632;2023-01-16T07:49:57;-0.10;99.90
22430;DHT22;11382;48.086;11.632;2023-01-16T07:52:25;0.00;99.90
22430;DHT22;11382;48.086;11.632;2023-01-16T07:54:53;0.00;99.90
22430;DHT22;11382;48.086;11.632;2023-01-16T07:57:21;0.20;99.90
22430;DHT22;11382;48.086;11.632;2023-01-16T07:59:53;0.20;99.90
22430;DHT22;11382;48.086;11.632;2023-01-16T08:02:22;0.30;99.90
22430;DHT22;11382;48.086;11.632;2023-01-16T08:04:50;0.10;99.90
22430;DHT22;11382;48.086;11.632;2023-01-16T08:07:19;0.20;99.90
22430;DHT22;11382;48.086;11.632;2023-01-16T08:09:47;0.40;99.90
22430;DHT22;11382;48.086;11.632;2023-01-16T08:12:15;0.50;99.90
22430;DHT22;11382;48.086;11.632;2023-01-16T08:14:43;0.60;99.90
22430;DHT22;11382;48.086;11.632;2023-01-16T08:17:11;0.80;99.90
22430;DHT22;11382;48.086;11.632;2023-01-16T08:19:39;0.80;99.90
22430;DHT22;11382;48.086;11.632;2023-01-16T08:22:07;0.80;99.90
22430;DHT22;11382;48.086;11.632;2023-01-16T08:24:36;1.00;99.90
22430;DHT22;11382;48.086;11.632;2023-01-16T08:27:04;1.00;99.90
22430;DHT22;11382;48.086;11.632;2023-01-16T08:29:32;1.20;99.90
22430;DHT22;11382;48.086;11.632;2023-01-16T08:32:00;1.60;99.90
22430;DHT22;11382;48.086;11.632;2023-01-16T08:34:29;1.80;99.90
22430;DHT22;11382;48.086;11.632;2023-01-16T08:36:58;1.80;99.90
22430;DHT22;11382;48.086;11.632;2023-01-16T08:39:25;1.90;99.90
22430;DHT22;11382;48.086;11.632;2023-01-16T08:41:55;2.10;99.90
22430;DHT22;11382;48.086;11.632;2023-01-16T08:44:41;2.40;99.90
22430;DHT22;11382;48.086;11.632;2023-01-16T08:47:27;3.10;99.90
22430;DHT22;11382;48.086;11.632;2023-01-16T08:53:00;5.30;99.90
22430;DHT22;11382;48.086;11.632;2023-01-16T08:55:28;5.70;99.90
22430;DHT22;11382;48.086;11.632;2023-01-16T08:58:00;5.80;99.90
22430;DHT22;11382;48.086;11.632;2023-01-16T09:00:29;6.00;99.90
22430;DHT22;11382;48.086;11.632;2023-01-16T09:02:57;6.40;99.90
22430;DHT22;11382;48.086;11.632;2023-01-16T09:05:26;6.30;99.90
22430;DHT22;11382;48.086;11.632;2023-01-16T09:07:55;6.00;99.90
22430;DHT22;11382;48.086;11.632;2023-01-16T09:10:24;6.80;99.90
22430;DHT22;11382;48.086;11.632;2023-01-16T09:12:53;7.00;99.90
22430;DHT22;11382;48.086;11.632;2023-01-16T09:15:41;7.40;99.90
22430;DHT22;11382;48.086;11.632;2023-01-16T09:18:09;8.10;99.90
22430;DHT22;11382;48.086;11.632;2023-01-16T09:20:39;7.00;99.90
22430;DHT22;11382;48.086;11.632;2023-01-16T09:23:07;6.80;99.90
22430;DHT22;11382;48.086;11.632;2023-01-16T09:25:35;6.70;99.90
22430;DHT22;11382;48.086;11.632;2023-01-16T09:28:04;7.40;99.90
22430;DHT22;11382;48.086;11.632;2023-01-16T09:30:32;7.40;99.90
22430;DHT22;11382;48.086;11.632;2023-01-16T09:33:01;7.80;99.90
22430;DHT22;11382;48.086;11.632;2023-01-16T09:35:29;7.60;99.90
22430;DHT22;11382;48.086;11.632;2023-01-16T09:37:57;7.60;99.90
22430;DHT22;11382;48.086;11.632;2023-01-16T09:40:25;7.90;99.90
22430;DHT22;11382;48.086;11.632;2023-01-16T09:43:07;8.20;99.90
22430;DHT22;11382;48.086;11.632;2023-01-16T09:45:58;8.20;99.90
22430;DHT22;11382;48.086;11.632;2023-01-16T09:48:30;8.20;99.90
22430;DHT22;11382;48.086;11.632;2023-01-16T09:51:02;8.80;99.90
22430;DHT22;11382;48.086;11.632;2023-01-16T09:53:37;8.60;99.90
22430;DHT22;11382;48.086;11.632;2023-01-16T09:56:27;7.90;99.90
22430;DHT22;11382;48.086;11.632;2023-01-16T09:59:20;7.60;99.90
22430;DHT22;11382;48.086;11.632;2023-01-16T10:01:55;7.10;99.90
22430;DHT22;11382;48.086;11.632;2023-01-16T10:04:28;6.30;99.90
22430;DHT22;11382;48.086;11.632;2023-01-16T10:07:18;6.20;99.90
22430;DHT22;11382;48.086;11.632;2023-01-16T10:09:54;5.90;99.90
22430;DHT22;11382;48.086;11.632;2023-01-16T10:12:32;5.70;99.90
22430;DHT22;11382;48.086;11.632;2023-01-16T10:15:17;5.70;99.90
22430;DHT22;11382;48.086;11.632;2023-01-16T10:17:58;5.90;99.90
22430;DHT22;11382;48.086;11.632;2023-01-16T10:20:42;6.40;99.90
22430;DHT22;11382;48.086;11.632;2023-01-16T10:23:35;7.90;99.90
22430;DHT22;11382;48.086;11.632;2023-01-16T10:26:08;7.70;99.90
22430;DHT22;11382;48.086;11.632;2023-01-16T10:28:52;6.60;99.90
22430;DHT22;11382;48.086;11.632;2023-01-16T10:31:26;6.60;99.90
22430;DHT22;11382;48.086;11.632;2023-01-16T10:34:00;7.40;99.90
22430;DHT22;11382;48.086;11.632;2023-01-16T10:36:34;8.50;99.90
22430;DHT22;11382;48.086;11.632;2023-01-16T10:39:03;9.10;99.90
22430;DHT22;11382;48.086;11.632;2023-01-16T10:41:33;8.80;99.90
22430;DHT22;11382;48.086;11.632;2023-01-16T10:44:28;8.10;99.90
22430;DHT22;11382;48.086;11.632;2023-01-16T10:47:16;7.30;99.90
22430;DHT22;11382;48.086;11.632;2023-01-16T10:50:03;7.30;99.90
22430;DHT22;11382;48.086;11.632;2023-01-16T10:52:33;6.80;99.90
22430;DHT22;11382;48.086;11.632;2023-01-16T10:55:02;7.30;99.90
22430;DHT22;11382;48.086;11.632;2023-01-16T10:57:31;6.90;99.90
22430;DHT22;11382;48.086;11.632;2023-01-16T11:00:02;6.00;99.90
22430;DHT22;11382;48.086;11.632;2023-01-16T11:02:33;5.60;99.90
22430;DHT22;11382;48.086;11.632;2023-01-16T11:05:21;6.10;99.90
22430;DHT22;11382;48.086;11.632;2023-01-16T11:07:54;7.30;99.90
22430;DHT22;11382;48.086;11.632;2023-01-16T11:10:23;8.00;99.90
22430;DHT22;11382;48.086;11.632;2023-01-16T11:12:51;7.90;99.90
22430;DHT22;11382;48.086;11.632;2023-01-16T11:15:37;8.40;99.90
22430;DHT22;11382;48.086;11.632;2023-01-16T11:18:29;8.20;99.90
22430;DHT22;11382;48.086;11.632;2023-01-16T11:20:59;8.40;99.90
22430;DHT22;11382;48.086;11.632;2023-01-16T11:23:36;9.40;99.90
22430;DHT22;11382;48.086;11.632;2023-01-16T11:26:06;9.40;99.90
22430;DHT22;11382;48.086;11.632;2023-01-16T11:28:35;9.50;99.90
22430;DHT22;11382;48.086;11.632;2023-01-16T11:31:09;10.10;99.90
22430;DHT22;11382;48.086;11.632;2023-01-16T11:33:44;10.70;99.90
22430;DHT22;11382;48.086;11.632;2023-01-16T11:36:15;10.10;99.90
22430;DHT22;11382;48.086;11.632;2023-01-16T11:38:47;10.90;99.90
22430;DHT22;11382;48.086;11.632;2023-01-16T11:41:18;10.40;99.90
22430;DHT22;11382;48.086;11.632;2023-01-16T11:43:54;9.10;99.90
22430;DHT22;11382;48.086;11.632;2023-01-16T11:46:49;8.60;99.90
22430;DHT22;11382;48.086;11.632;2023-01-16T11:49:23;8.20;99.90
22430;DHT22;11382;48.086;11.632;2023-01-16T11:51:53;8.60;99.90
22430;DHT22;11382;48.086;11.632;2023-01-16T11:54:27;8.70;99.90
22430;DHT22;11382;48.086;11.632;2023-01-16T11:57:11;8.40;99.90
22430;DHT22;11382;48.086;11.632;2023-01-16T11:59:53;8.00;99.90
22430;DHT22;11382;48.086;11.632;2023-01-16T12:02:41;8.00;99.90
22430;DHT22;11382;48.086;11.632;2023-01-16T12:05:20;8.70;99.90
22430;DHT22;11382;48.086;11.632;2023-01-16T12:08:22;8.60;99.90
22430;DHT22;11382;48.086;11.632;2023-01-16T12:10:56;8.30;99.90
22430;DHT22;11382;48.086;11.632;2023-01-16T12:13:32;8.40;99.90
22430;DHT22;11382;48.086;11.632;2023-01-16T12:16:30;8.20;99.90
22430;DHT22;11382;48.086;11.632;2023-01-16T12:19:15;8.40;99.90
22430;DHT22;11382;48.086;11.632;2023-01-16T12:21:51;7.90;99.90
22430;DHT22;11382;48.086;11.632;2023-01-16T12:24:30;7.70;99.90
22430;DHT22;11382;48.086;11.632;2023-01-16T12:27:21;7.70;99.90
22430;DHT22;11382;48.086;11.632;2023-01-16T12:30:00;7.80;99.90
22430;DHT22;11382;48.086;11.632;2023-01-16T12:32:45;7.80;99.90
22430;DHT22;11382;48.086;11.632;2023-01-16T12:35:24;7.70;99.90
22430;DHT22;11382;48.086;11.632;2023-01-16T12:38:09;7.80;99.90
22430;DHT22;11382;48.086;11.632;2023-01-16T12:41:08;8.10;99.90
22430;DHT22;11382;48.086;11.632;2023-01-16T12:44:16;8.00;99.90
22430;DHT22;11382;48.086;11.632;2023-01-16T12:46:55;7.90;99.90
22430;DHT22;11382;48.086;11.632;2023-01-16T12:49:37;8.10;99.90
22430;DHT22;11382;48.086;11.632;2023-01-16T12:52:19;8.00;99.90
22430;DHT22;11382;48.086;11.632;2023-01-16T12:54:58;7.70;99.90
22430;DHT22;11382;48.086;11.632;2023-01-16T12:57:47;7.70;99.90
22430;DHT22;11382;48.086;11.632;2023-01-16T13:00:27;7.80;99.90
22430;DHT22;11382;48.086;11.632;2023-01-16T13:02:58;7.80;99.90
22430;DHT22;11382;48.086;11.632;2023-01-16T13:05:32;7.90;99.90
22430;DHT22;11382;48.086;11.632;2023-01-16T13:08:04;8.10;99.90
22430;DHT22;11382;48.086;11.632;2023-01-16T13:10:37;8.00;99.90
22430;DHT22;11382;48.086;11.632;2023-01-16T13:13:26;7.80;99.90
22430;DHT22;11382;48.086;11.632;2023-01-16T13:16:02;7.90;99.90
22430;DHT22;11382;48.086;11.632;2023-01-16T13:18:36;7.70;99.90
22430;DHT22;11382;48.086;11.632;2023-01-16T13:21:08;7.50;99.90
22430;DHT22;11382;48.086;11.632;2023-01-16T13:23:44;7.50;99.90
22430;DHT22;11382;48.086;11.632;2023-01-16T13:26:15;7.40;99.90
22430;DHT22;11382;48.086;11.632;2023-01-16T13:28:49;7.30;99.90
22430;DHT22;11382;48.086;11.632;2023-01-16T13:31:26;7.40;99.90
22430;DHT22;11382;48.086;11.632;2023-01-16T13:34:03;7.40;99.90
22430;DHT22;11382;48.086;11.632;2023-01-16T13:42:28;7.70;99.90
22430;DHT22;11382;48.086;11.632;2023-01-16T13:45:00;7.80;99.90
22430;DHT22;11382;48.086;11.632;2023-01-16T13:47:49;7.80;99.90
22430;DHT22;11382;48.086;11.632;2023-01-16T13:50:21;7.90;99.90
22430;DHT22;11382;48.086;11.632;2023-01-16T13:52:54;7.90;99.90
22430;DHT22;11382;48.086;11.632;2023-01-16T13:55:28;8.00;99.90
22430;DHT22;11382;48.086;11.632;2023-01-16T13:58:07;8.00;99.90
22430;DHT22;11382;48.086;11.632;2023-01-16T14:00:41;7.90;99.90
22430;DHT22;11382;48.086;11.632;2023-01-16T14:03:19;7.80;99.90
22430;DHT22;11382;48.086;11.632;2023-01-16T14:05:50;7.80;99.90
22430;DHT22;11382;48.086;11.632;2023-01-16T14:08:46;7.80;99.90
22430;DHT22;11382;48.086;11.632;2023-01-16T14:11:38;7.80;99.90
22430;DHT22;11382;48.086;11.632;2023-01-16T14:14:27;7.80;99.90
22430;DHT22;11382;48.086;11.632;2023-01-16T14:17:14;7.50;99.90
22430;DHT22;11382;48.086;11.632;2023-01-16T14:19:52;7.30;99.90
22430;DHT22;11382;48.086;11.632;2023-01-16T14:22:22;7.30;99.90
22430;DHT22;11382;48.086;11.632;2023-01-16T14:25:21;7.30;99.90
22430;DHT22;11382;48.086;11.632;2023-01-16T14:27:52;7.10;99.90
22430;DHT22;11382;48.086;11.632;2023-01-16T14:30:26;7.30;99.90
22430;DHT22;11382;48.086;11.632;2023-01-16T14:32:58;7.30;99.90
22430;DHT22;11382;48.086;11.632;2023-01-16T14:35:31;7.20;99.90
22430;DHT22;11382;48.086;11.632;2023-01-16T14:38:14;6.90;99.90
22430;DHT22;11382;48.086;11.632;2023-01-16T14:40:48;6.80;99.90
22430;DHT22;11382;48.086;11.632;2023-01-16T14:43:35;6.70;99.90
22430;DHT22;11382;48.086;11.632;2023-01-16T14:46:30;6.70;99.90
22430;DHT22;11382;48.086;11.632;2023-01-16T14:49:44;6.50;99.90
22430;DHT22;11382;48.086;11.632;2023-01-16T14:52:56;6.70;99.90
22430;DHT22;11382;48.086;11.632;2023-01-16T14:55:48;6.80;99.90
22430;DHT22;11382;48.086;11.632;2023-01-16T14:58:23;6.80;99.90
22430;DHT22;11382;48.086;11.632;2023-01-16T15:00:55;6.70;99.90
22430;DHT22;11382;48.086;11.632;2023-01-16T15:03:45;6.50;99.90
22430;DHT22;11382;48.086;11.632;2023-01-16T15:06:13;6.50;99.90
22430;DHT22;11382;48.086;11.632;2023-01-16T15:08:45;6.40;99.90
22430;DHT22;11382;48.086;11.632;2023-01-16T15:11:22;6.50;99.90
22430;DHT22;11382;48.086;11.632;2023-01-16T15:14:10;6.40;99.90
22430;DHT22;11382;48.086;11.632;2023-01-16T15:16:57;6.30;99.90
22430;DHT22;11382;48.086;11.632;2023-01-16T15:20:02;6.10;99.90
22430;DHT22;11382;48.086;11.632;2023-01-16T15:22:53;6.00;99.90
22430;DHT22;11382;48.086;11.632;2023-01-16T15:28:21;5.80;99.90
22430;DHT22;11382;48.086;11.632;2023-01-16T15:30:52;5.80;99.90
22430;DHT22;11382;48.086;11.632;2023-01-16T15:33:25;5.80;99.90
22430;DHT22;11382;48.086;11.632;2023-01-16T15:36:17;5.80;99.90
22430;DHT22;11382;48.086;11.632;2023-01-16T15:38:46;5.80;99.90
22430;DHT22;11382;48.086;11.632;2023-01-16T15:41:19;5.80;99.90
22430;DHT22;11382;48.086;11.632;2023-01-16T15:44:14;5.70;99.90
22430;DHT22;11382;48.086;11.632;2023-01-16T15:50:20;5.50;99.90
22430;DHT22;11382;48.086;11.632;2023-01-16T15:52:51;5.40;99.90
22430;DHT22;11382;48.086;11.632;2023-01-16T15:55:21;5.30;99.90
22430;DHT22;11382;48.086;11.632;2023-01-16T15:57:53;5.20;99.90
22430;DHT22;11382;48.086;11.632;2023-01-16T16:00:28;5.10;99.90
22430;DHT22;11382;48.086;11.632;2023-01-16T16:02:58;5.10;99.90
22430;DHT22;11382;48.086;11.632;2023-01-16T16:05:28;5.00;99.90
22430;DHT22;11382;48.086;11.632;2023-01-16T16:07:57;5.00;99.90
22430;DHT22;11382;48.086;11.632;2023-01-16T16:10:28;4.90;99.90
22430;DHT22;11382;48.086;11.632;2023-01-16T16:13:16;4.80;99.90
22430;DHT22;11382;48.086;11.632;2023-01-16T16:15:56;4.80;99.90
22430;DHT22;11382;48.086;11.632;2023-01-16T16:18:52;4.70;99.90
22430;DHT22;11382;48.086;11.632;2023-01-16T16:21:21;4.40;99.90
22430;DHT22;11382;48.086;11.632;2023-01-16T16:23:57;4.30;99.90
22430;DHT22;11382;48.086;11.632;2023-01-16T16:26:26;4.30;99.90
22430;DHT22;11382;48.086;11.632;2023-01-16T16:28:57;4.10;99.90
22430;DHT22;11382;48.086;11.632;2023-01-16T16:31:28;4.00;99.90
22430;DHT22;11382;48.086;11.632;2023-01-16T16:34:00;4.00;99.90
22430;DHT22;11382;48.086;11.632;2023-01-16T16:36:35;4.00;99.90
22430;DHT22;11382;48.086;11.632;2023-01-16T16:39:03;4.10;99.90
22430;DHT22;11382;48.086;11.632;2023-01-16T16:41:46;3.90;99.90
22430;DHT22;11382;48.086;11.632;2023-01-16T16:44:36;3.90;99.90
22430;DHT22;11382;48.086;11.632;2023-01-16T16:47:19;3.80;99.90